Time;durP1;ratioP1;P1;durP2;ratioP2;P2;SDS_P1;SDS_P2;PMS_P1;PMS_P2;Temp;Humidity;BMP_temperature;BMP_pressure;BME280_temperature;BME280_humidity;BME280_pressure;Samples;Min_cycle;Max_cycle;Signal;HPM_P1;HPM_P2
2023/04/23 00:00:06;;;;;;;34.40;22.10;;;9.10;99.90;;;;;;4866149;28;89187;-30
2023/04/23 00:02:33;;;;;;;30.63;21.13;;;9.00;99.90;;;;;;4866560;28;89403;-32
2023/04/23 00:05:04;;;;;;;28.92;20.85;;;9.00;99.90;;;;;;4866113;28;91205;-32
2023/04/23 00:07:34;;;;;;;28.58;20.42;;;9.00;99.90;;;;;;4877998;28;90099;-32
2023/04/23 00:10:02;;;;;;;33.90;22.20;;;9.00;99.90;;;;;;4866450;28;89340;-32
2023/04/23 00:12:28;;;;;;;;;;;9.00;99.90;;;;;;4882418;28;89483;-34
2023/04/23 00:14:54;;;;;;;29.55;19.27;;;9.00;99.90;;;;;;4884364;28;91387;-33
2023/04/23 00:17:20;;;;;;;35.17;20.42;;;9.00;99.90;;;;;;4888429;28;90027;-34
2023/04/23 00:19:46;;;;;;;29.88;21.13;;;9.00;99.90;;;;;;4882214;28;89797;-29
2023/04/23 00:22:12;;;;;;;34.33;22.42;;;9.00;99.90;;;;;;4881698;28;88809;-30
2023/04/23 00:24:38;;;;;;;32.85;21.70;;;9.00;99.90;;;;;;4882631;28;89487;-29
2023/04/23 00:27:05;;;;;;;32.65;21.23;;;9.00;99.90;;;;;;4882178;28;89859;-33
2023/04/23 00:29:31;;;;;;;32.25;21.15;;;9.10;99.90;;;;;;4881978;28;89180;-31
2023/04/23 00:31:56;;;;;;;30.60;20.92;;;9.00;99.90;;;;;;4882789;28;91731;-32
2023/04/23 00:34:22;;;;;;;30.48;21.42;;;9.00;99.90;;;;;;4882437;28;89788;-30
2023/04/23 00:36:48;;;;;;;28.58;20.50;;;9.00;99.90;;;;;;4882613;28;90578;-35
2023/04/23 00:39:13;;;;;;;33.50;23.27;;;9.10;99.90;;;;;;4882483;28;89363;-33
2023/04/23 00:41:40;;;;;;;32.53;22.08;;;9.00;99.90;;;;;;4882376;28;90089;-35
2023/04/23 00:44:06;;;;;;;34.17;22.77;;;9.00;99.90;;;;;;4883424;28;89908;-34
2023/04/23 00:46:31;;;;;;;31.58;23.33;;;9.10;99.90;;;;;;4881984;28;89808;-30
2023/04/23 00:48:58;;;;;;;32.33;20.90;;;9.10;99.90;;;;;;4882544;28;89242;-34
2023/04/23 00:51:25;;;;;;;27.70;19.73;;;9.10;99.90;;;;;;4882057;28;90048;-30
2023/04/23 00:53:50;;;;;;;34.80;22.88;;;9.10;99.90;;;;;;4881893;28;90701;-31
2023/04/23 00:56:17;;;;;;;28.88;21.45;;;9.10;99.90;;;;;;4882399;28;88981;-31
2023/04/23 00:58:43;;;;;;;30.77;22.92;;;9.10;99.90;;;;;;4882194;28;89127;-32
2023/04/23 01:01:11;;;;;;;30.25;22.17;;;9.00;99.90;;;;;;4881316;28;90162;-30
2023/04/23 01:03:38;;;;;;;29.33;24.00;;;9.00;99.90;;;;;;4882174;28;89831;-34
2023/04/23 01:06:04;;;;;;;33.15;23.90;;;9.00;99.90;;;;;;4881808;28;89101;-34
2023/04/23 01:08:31;;;;;;;35.25;24.75;;;8.90;99.90;;;;;;4882426;28;89467;-32
2023/04/23 01:10:57;;;;;;;41.40;25.50;;;8.90;99.90;;;;;;4882139;28;90212;-33
2023/04/23 01:13:25;;;;;;;41.63;28.55;;;8.80;99.90;;;;;;4881148;28;89722;-29
2023/04/23 01:15:51;;;;;;;34.00;24.15;;;8.80;99.90;;;;;;4882696;28;89471;-32
2023/04/23 01:18:18;;;;;;;33.65;24.25;;;8.80;99.90;;;;;;4881172;28;89338;-33
2023/04/23 01:20:44;;;;;;;35.03;24.17;;;8.80;99.90;;;;;;4882537;28;90053;-32
2023/04/23 01:23:10;;;;;;;37.50;26.55;;;8.70;99.90;;;;;;4881334;28;89788;-30
2023/04/23 01:25:36;;;;;;;37.83;26.88;;;8.70;99.90;;;;;;4881287;28;89972;-32
2023/04/23 01:28:03;;;;;;;38.80;25.50;;;8.70;99.90;;;;;;4881987;28;88262;-32
2023/04/23 01:30:29;;;;;;;42.25;28.23;;;8.70;99.90;;;;;;4881965;28;91890;-33
2023/04/23 01:32:56;;;;;;;40.28;27.63;;;8.70;99.90;;;;;;4879946;28;89206;-36
2023/04/23 01:35:24;;;;;;;42.85;29.70;;;8.60;99.90;;;;;;4882415;28;89633;-31
2023/04/23 01:37:51;;;;;;;39.57;27.43;;;8.60;99.90;;;;;;4881592;28;89358;-30
2023/04/23 01:40:17;;;;;;;40.00;27.00;;;8.60;99.90;;;;;;4881660;28;90278;-33
2023/04/23 01:42:43;;;;;;;45.92;31.05;;;8.60;99.90;;;;;;4880952;28;90690;-35
2023/04/23 01:45:09;;;;;;;42.78;29.83;;;8.50;99.90;;;;;;4881594;28;90782;-30
2023/04/23 01:47:35;;;;;;;49.97;32.92;;;8.50;99.90;;;;;;4880700;28;88202;-34
2023/04/23 01:50:01;;;;;;;39.65;29.25;;;8.50;99.90;;;;;;4882342;28;90278;-31
2023/04/23 01:52:26;;;;;;;44.58;32.10;;;8.50;99.90;;;;;;4880931;28;89623;-32
2023/04/23 01:54:52;;;;;;;51.03;33.83;;;8.50;99.90;;;;;;4881973;28;89891;-35
2023/04/23 01:57:25;;;;;;;45.58;30.52;;;8.50;99.90;;;;;;4881280;28;89456;-33
2023/04/23 01:59:51;;;;;;;46.42;32.65;;;8.50;99.90;;;;;;4880008;28;90188;-32
2023/04/23 02:02:16;;;;;;;53.08;32.13;;;8.50;99.90;;;;;;4880876;28;89723;-30
2023/04/23 02:04:44;;;;;;;49.78;32.28;;;8.50;99.90;;;;;;4881805;28;89558;-31
2023/04/23 02:07:10;;;;;;;54.28;31.67;;;8.50;99.90;;;;;;4880769;28;91186;-30
2023/04/23 02:09:36;;;;;;;50.60;31.65;;;8.50;99.90;;;;;;4881492;28;90177;-32
2023/04/23 02:12:01;;;;;;;51.53;31.17;;;8.50;99.90;;;;;;4880780;28;90276;-30
2023/04/23 02:14:28;;;;;;;48.78;32.33;;;8.50;99.90;;;;;;4881325;28;89189;-33
2023/04/23 02:16:54;;;;;;;60.53;32.33;;;8.50;99.90;;;;;;4880687;28;89020;-30
2023/04/23 02:19:20;;;;;;;58.20;36.97;;;8.40;99.90;;;;;;4881250;28;90691;-30
2023/04/23 02:21:46;;;;;;;56.60;35.53;;;8.40;99.90;;;;;;4881257;28;89435;-30
2023/04/23 02:24:12;;;;;;;57.22;36.00;;;8.40;99.90;;;;;;4880816;28;88927;-32
2023/04/23 02:26:37;;;;;;;53.63;35.08;;;8.40;99.90;;;;;;4880322;28;89789;-30
2023/04/23 02:29:03;;;;;;;60.92;38.95;;;8.40;99.90;;;;;;4880762;28;88443;-33
2023/04/23 02:31:28;;;;;;;53.45;37.40;;;8.40;99.90;;;;;;4880486;28;89694;-35
2023/04/23 02:33:54;;;;;;;57.85;37.80;;;8.40;99.90;;;;;;4880614;28;90776;-30
2023/04/23 02:36:20;;;;;;;55.83;34.58;;;8.30;99.90;;;;;;4879510;28;89109;-34
2023/04/23 02:38:48;;;;;;;53.83;36.97;;;8.30;99.90;;;;;;4880992;28;91508;-30
2023/04/23 02:41:13;;;;;;;48.77;36.77;;;8.40;99.90;;;;;;4880377;28;89486;-30
2023/04/23 02:43:39;;;;;;;56.70;38.55;;;8.30;99.90;;;;;;4881189;28;89886;-35
2023/04/23 02:46:08;;;;;;;48.95;32.30;;;8.30;99.90;;;;;;4880925;28;89454;-32
2023/04/23 02:48:41;;;;;;;53.13;36.75;;;8.30;99.90;;;;;;4880619;28;90620;-30
2023/04/23 02:51:09;;;;;;;58.10;37.22;;;8.30;99.90;;;;;;4881054;28;91135;-31
2023/04/23 02:53:35;;;;;;;62.13;42.50;;;8.30;99.90;;;;;;4881137;28;89208;-30
2023/04/23 02:56:01;;;;;;;54.67;35.85;;;8.30;99.90;;;;;;4880496;28;90746;-32
2023/04/23 02:58:27;;;;;;;57.55;39.28;;;8.20;99.90;;;;;;4880774;28;89084;-32
2023/04/23 03:00:53;;;;;;;57.28;36.83;;;8.30;99.90;;;;;;4880232;28;90110;-29
2023/04/23 03:03:19;;;;;;;70.80;40.78;;;8.20;99.90;;;;;;4880519;28;89897;-33
2023/04/23 03:05:45;;;;;;;54.75;40.38;;;8.20;99.90;;;;;;4881183;28;88127;-31
2023/04/23 03:08:10;;;;;;;57.53;39.58;;;8.10;99.90;;;;;;4880503;28;90308;-31
2023/04/23 03:10:36;;;;;;;62.75;42.13;;;8.20;99.90;;;;;;4881309;28;90268;-31
2023/04/23 03:13:01;;;;;;;66.25;40.80;;;8.10;99.90;;;;;;4880362;28;91622;-32
2023/04/23 03:15:27;;;;;;;69.93;43.78;;;8.10;99.90;;;;;;4880316;28;89116;-34
2023/04/23 03:17:52;;;;;;;70.97;44.28;;;8.00;99.90;;;;;;4880548;28;92051;-30
2023/04/23 03:20:19;;;;;;;74.38;46.08;;;8.10;99.90;;;;;;4879544;28;90151;-29
2023/04/23 03:22:44;;;;;;;66.88;43.70;;;8.00;99.90;;;;;;4880399;28;90308;-30
2023/04/23 03:25:11;;;;;;;96.70;47.45;;;8.00;99.90;;;;;;4880160;28;88619;-30
2023/04/23 03:27:39;;;;;;;71.95;49.70;;;8.00;99.90;;;;;;4879810;28;89885;-34
2023/04/23 03:30:07;;;;;;;71.53;47.05;;;7.90;99.90;;;;;;4880512;28;89245;-30
2023/04/23 03:32:33;;;;;;;;;;;7.90;99.90;;;;;;4895578;28;88231;-32
2023/04/23 03:34:58;;;;;;;73.05;46.03;;;7.90;99.90;;;;;;4881974;28;89364;-32
2023/04/23 03:37:24;;;;;;;73.28;46.55;;;7.90;99.90;;;;;;4880351;28;90039;-32
2023/04/23 03:39:50;;;;;;;67.80;46.35;;;7.90;99.90;;;;;;4883302;28;90407;-32
2023/04/23 03:42:15;;;;;;;67.38;46.53;;;7.90;99.90;;;;;;4883664;28;89743;-29
2023/04/23 03:44:41;;;;;;;70.50;47.03;;;7.90;99.90;;;;;;4883708;28;89787;-30
2023/04/23 03:47:07;;;;;;;77.53;44.13;;;7.90;99.90;;;;;;4883039;28;89541;-32
2023/04/23 03:49:32;;;;;;;70.63;45.40;;;7.90;99.90;;;;;;4883538;28;89709;-32
2023/04/23 03:51:58;;;;;;;65.45;47.10;;;8.00;99.90;;;;;;4883403;28;89650;-33
2023/04/23 03:54:24;;;;;;;75.15;49.22;;;7.90;99.90;;;;;;4883220;28;88599;-32
2023/04/23 03:56:50;;;;;;;71.03;43.83;;;7.90;99.90;;;;;;4883635;28;90491;-30
2023/04/23 03:59:16;;;;;;;73.55;49.42;;;7.90;99.90;;;;;;4882690;28;89482;-31
2023/04/23 04:01:42;;;;;;;67.50;43.30;;;7.90;99.90;;;;;;4917599;23;90228;-33
2023/04/23 04:04:07;;;;;;;68.97;43.70;;;7.90;99.90;;;;;;4918068;28;90324;-31
2023/04/23 04:06:33;;;;;;;72.78;41.10;;;7.80;99.90;;;;;;4921512;28;90345;-35
2023/04/23 04:08:59;;;;;;;76.32;43.17;;;7.80;99.90;;;;;;4919468;28;90195;-32
2023/04/23 04:11:25;;;;;;;66.55;42.25;;;7.80;99.90;;;;;;4910848;28;90765;-36
2023/04/23 04:13:51;;;;;;;62.53;40.83;;;7.80;99.90;;;;;;4915291;28;88641;-31
2023/04/23 04:16:16;;;;;;;58.88;39.30;;;7.70;99.90;;;;;;4901685;28;90325;-34
2023/04/23 04:18:42;;;;;;;58.22;39.45;;;7.70;99.90;;;;;;4901728;28;90109;-32
2023/04/23 04:21:08;;;;;;;59.95;40.83;;;7.70;99.90;;;;;;4912238;28;90965;-32
2023/04/23 04:23:33;;;;;;;68.70;43.30;;;7.70;99.90;;;;;;4921208;28;88785;-30
2023/04/23 04:25:59;;;;;;;72.90;43.45;;;7.70;99.90;;;;;;4911641;28;89843;-32
2023/04/23 04:28:25;;;;;;;57.78;41.55;;;7.70;99.90;;;;;;4900470;28;89026;-29
2023/04/23 04:30:53;;;;;;;63.30;42.38;;;7.70;99.90;;;;;;4901734;28;89563;-30
2023/04/23 04:33:19;;;;;;;63.58;41.35;;;7.70;99.90;;;;;;4901036;28;88777;-30
2023/04/23 04:35:47;;;;;;;86.88;42.53;;;7.70;99.90;;;;;;4901887;28;90263;-29
2023/04/23 04:38:13;;;;;;;56.00;36.08;;;7.70;99.90;;;;;;4905808;28;89476;-34
2023/04/23 04:40:39;;;;;;;112.22;40.17;;;7.70;99.90;;;;;;4921032;28;89649;-34
2023/04/23 04:43:05;;;;;;;63.42;37.13;;;7.60;99.90;;;;;;4920414;28;90245;-32
2023/04/23 04:45:31;;;;;;;343.80;69.45;;;7.60;99.90;;;;;;4920884;28;90265;-30
2023/04/23 04:47:56;;;;;;;191.75;53.17;;;7.60;99.90;;;;;;4919728;28;89571;-32
2023/04/23 04:50:23;;;;;;;99.00;41.75;;;7.60;99.90;;;;;;4919934;28;90214;-34
2023/04/23 04:52:48;;;;;;;205.18;51.00;;;7.60;99.90;;;;;;4919376;28;87724;-34
2023/04/23 04:55:14;;;;;;;302.35;64.85;;;7.50;99.90;;;;;;4919673;28;91354;-31
2023/04/23 04:57:40;;;;;;;224.25;51.50;;;7.50;99.90;;;;;;4918970;28;91238;-30
2023/04/23 05:00:24;;;;;;;84.43;37.85;;;7.50;99.90;;;;;;4920025;28;90067;-35
2023/04/23 05:02:50;;;;;;;121.50;37.85;;;7.50;99.90;;;;;;4896319;28;89361;-30
2023/04/23 05:05:17;;;;;;;85.53;40.05;;;7.50;99.90;;;;;;4918896;28;88350;-33
2023/04/23 05:07:43;;;;;;;54.50;36.85;;;7.50;99.90;;;;;;4919770;28;89883;-35
2023/04/23 05:10:09;;;;;;;59.95;39.42;;;7.50;99.90;;;;;;4918191;28;89188;-34
2023/04/23 05:12:36;;;;;;;66.15;44.00;;;7.50;99.90;;;;;;4901815;28;88365;-32
2023/04/23 05:15:03;;;;;;;69.25;44.42;;;7.60;99.90;;;;;;4901959;28;87681;-34
2023/04/23 05:17:29;;;;;;;68.80;45.80;;;7.80;99.90;;;;;;4901305;28;89753;-30
2023/04/23 05:19:54;;;;;;;74.53;48.28;;;7.90;99.90;;;;;;4902177;28;89602;-29
2023/04/23 05:22:20;;;;;;;61.88;43.38;;;8.00;99.90;;;;;;4903342;28;89654;-30
2023/04/23 05:24:46;;;;;;;74.97;45.05;;;8.10;99.90;;;;;;4907491;28;90126;-31
2023/04/23 05:27:11;;;;;;;74.03;45.47;;;8.20;99.90;;;;;;4899737;28;89891;-31
2023/04/23 05:29:37;;;;;;;73.13;47.20;;;8.20;99.90;;;;;;4900346;28;89783;-35
2023/04/23 05:32:02;;;;;;;71.15;45.90;;;8.20;99.90;;;;;;4901821;28;90009;-31
2023/04/23 05:34:28;;;;;;;77.07;48.53;;;8.30;99.90;;;;;;4901010;28;90491;-35
2023/04/23 05:36:54;;;;;;;73.18;45.92;;;8.30;99.90;;;;;;4901836;28;89262;-31
2023/04/23 05:39:19;;;;;;;81.22;47.53;;;8.30;99.90;;;;;;4899663;28;90145;-34
2023/04/23 05:41:45;;;;;;;73.38;45.95;;;8.30;99.90;;;;;;4901215;28;88430;-30
2023/04/23 05:44:11;;;;;;;74.53;47.58;;;8.30;99.90;;;;;;4900786;28;89512;-31
2023/04/23 05:46:37;;;;;;;78.22;49.83;;;8.40;99.90;;;;;;4900610;28;90819;-34
2023/04/23 05:49:03;;;;;;;71.72;46.00;;;8.40;99.90;;;;;;4901654;28;90544;-31
2023/04/23 05:51:28;;;;;;;76.85;47.67;;;8.40;99.90;;;;;;4900445;28;88501;-30
2023/04/23 05:53:54;;;;;;;73.60;45.45;;;8.40;99.90;;;;;;4901191;28;90356;-34
2023/04/23 05:56:19;;;;;;;75.65;48.38;;;8.50;99.90;;;;;;4900232;28;89635;-33
2023/04/23 05:58:45;;;;;;;78.35;49.90;;;8.50;99.90;;;;;;4901700;28;90207;-30
2023/04/23 06:01:11;;;;;;;75.65;48.80;;;8.60;99.90;;;;;;4888166;28;89999;-29
2023/04/23 06:03:36;;;;;;;70.93;45.88;;;8.60;99.90;;;;;;4901529;28;89064;-31
2023/04/23 06:06:02;;;;;;;81.95;51.78;;;8.60;99.90;;;;;;4901103;28;88457;-30
2023/04/23 06:08:28;;;;;;;80.85;54.15;;;8.60;99.90;;;;;;4899878;28;89842;-31
2023/04/23 06:10:54;;;;;;;73.75;49.42;;;8.70;99.90;;;;;;4900642;28;88203;-32
2023/04/23 06:13:20;;;;;;;71.53;45.92;;;8.80;99.90;;;;;;4913080;28;90243;-32
2023/04/23 06:15:46;;;;;;;78.43;48.80;;;8.80;99.90;;;;;;4919760;28;88705;-35
2023/04/23 06:18:12;;;;;;;74.35;47.58;;;9.00;99.90;;;;;;4918682;28;89227;-32
2023/04/23 06:20:37;;;;;;;78.05;51.50;;;9.10;99.90;;;;;;4919083;28;88873;-31
2023/04/23 06:23:03;;;;;;;82.78;51.45;;;9.20;99.90;;;;;;4919132;28;90304;-29
2023/04/23 06:25:28;;;;;;;73.88;48.45;;;9.30;99.90;;;;;;4918613;28;90110;-29
2023/04/23 06:27:56;;;;;;;69.35;47.85;;;9.40;99.90;;;;;;4907379;28;89830;-35
2023/04/23 06:30:22;;;;;;;70.63;47.38;;;9.50;99.90;;;;;;4915289;28;90385;-30
2023/04/23 06:32:48;;;;;;;76.32;46.35;;;9.70;99.90;;;;;;4912288;28;89873;-32
2023/04/23 06:35:14;;;;;;;77.55;49.55;;;9.80;99.90;;;;;;4905717;28;90614;-34
2023/04/23 06:37:39;;;;;;;74.15;48.78;;;10.00;99.90;;;;;;4918672;28;90468;-34
2023/04/23 06:40:06;;;;;;;77.97;45.70;;;10.10;99.90;;;;;;4919344;28;89034;-33
2023/04/23 06:42:32;;;;;;;73.53;50.03;;;10.20;99.90;;;;;;4918633;28;90174;-32
2023/04/23 06:44:58;;;;;;;76.25;45.95;;;10.50;99.90;;;;;;4919026;28;89198;-33
2023/04/23 06:47:24;;;;;;;64.13;41.60;;;10.70;99.90;;;;;;4918008;28;90161;-31
2023/04/23 06:49:49;;;;;;;60.05;37.33;;;10.80;99.90;;;;;;4919901;28;88077;-32
2023/04/23 06:52:15;;;;;;;62.83;42.55;;;11.00;99.90;;;;;;4918559;28;90357;-32
2023/04/23 06:54:41;;;;;;;59.88;37.00;;;11.30;99.90;;;;;;4918927;28;89260;-31
2023/04/23 06:57:06;;;;;;;53.65;36.13;;;11.50;99.90;;;;;;4917720;28;89332;-32
2023/04/23 06:59:32;;;;;;;52.80;36.30;;;11.70;99.90;;;;;;4899558;28;89458;-32
2023/04/23 07:01:57;;;;;;;55.60;36.67;;;11.80;99.90;;;;;;4899166;28;90283;-34
2023/04/23 07:04:23;;;;;;;58.65;35.00;;;12.10;99.90;;;;;;4905490;28;91591;-32
2023/04/23 07:06:48;;;;;;;53.20;36.10;;;12.30;99.90;;;;;;4918996;28;89603;-29
2023/04/23 07:09:14;;;;;;;49.08;34.90;;;12.50;99.90;;;;;;4917339;28;88438;-30
2023/04/23 07:11:40;;;;;;;59.35;37.13;;;12.50;99.90;;;;;;4906690;28;90253;-31
2023/04/23 07:14:05;;;;;;;48.88;35.92;;;12.70;99.90;;;;;;4921184;28;89077;-31
2023/04/23 07:16:32;;;;;;;52.97;34.83;;;12.90;99.90;;;;;;4922440;28;91041;-31
2023/04/23 07:19:00;;;;;;;49.28;33.80;;;13.10;99.90;;;;;;4922321;28;90041;-31
2023/04/23 07:21:26;;;;;;;53.17;36.05;;;13.10;99.90;;;;;;4921484;28;90050;-29
2023/04/23 07:23:53;;;;;;;49.92;33.70;;;13.40;99.90;;;;;;4920424;28;90724;-28
2023/04/23 07:26:20;;;;;;;45.92;33.53;;;13.50;99.90;;;;;;4921981;28;90621;-33
2023/04/23 07:28:47;;;;;;;48.17;33.78;;;13.50;99.90;;;;;;4921171;28;87661;-31
2023/04/23 07:31:13;;;;;;;47.47;35.50;;;13.60;99.90;;;;;;4920512;28;90232;-32
2023/04/23 07:33:39;;;;;;;51.85;33.35;;;13.90;99.90;;;;;;4915683;28;90903;-31
2023/04/23 07:36:04;;;;;;;45.20;33.55;;;14.10;99.90;;;;;;4915353;28;89490;-31
2023/04/23 07:38:30;;;;;;;46.53;31.20;;;14.10;99.90;;;;;;4913939;28;88879;-35
2023/04/23 07:40:55;;;;;;;47.13;33.08;;;14.30;99.90;;;;;;4901482;28;90009;-32
2023/04/23 07:43:21;;;;;;;48.80;33.20;;;14.40;99.90;;;;;;4920752;28;89410;-31
2023/04/23 07:45:47;;;;;;;38.55;31.60;;;14.50;99.90;;;;;;4920657;28;90066;-32
2023/04/23 07:48:12;;;;;;;40.58;30.25;;;14.00;99.90;;;;;;4920216;28;89581;-29
2023/04/23 07:50:38;;;;;;;40.58;33.17;;;14.00;99.90;;;;;;4921185;28;90007;-34
2023/04/23 07:53:03;;;;;;;44.17;31.08;;;14.00;99.90;;;;;;4920893;28;90214;-31
2023/04/23 07:55:29;;;;;;;38.28;28.27;;;13.60;99.90;;;;;;4920426;28;90059;-34
2023/04/23 07:57:54;;;;;;;44.97;30.77;;;13.60;99.90;;;;;;4921040;28;88117;-31
2023/04/23 08:00:20;;;;;;;44.15;32.13;;;13.70;99.90;;;;;;4920527;28;89232;-35
2023/04/23 08:02:46;;;;;;;37.65;30.23;;;13.80;99.90;;;;;;4920443;28;89974;-30
2023/04/23 08:05:12;;;;;;;36.95;28.75;;;14.30;99.90;;;;;;4907915;28;89899;-32
2023/04/23 08:07:37;;;;;;;34.15;26.42;;;14.60;99.90;;;;;;4920987;28;89111;-34
2023/04/23 08:10:05;;;;;;;38.17;27.95;;;14.50;99.90;;;;;;4905421;28;91404;-31
2023/04/23 08:12:33;;;;;;;36.45;29.15;;;14.70;99.90;;;;;;4901003;28;90397;-32
2023/04/23 08:14:59;;;;;;;34.47;24.92;;;14.90;99.90;;;;;;4901527;28;90972;-34
2023/04/23 08:17:24;;;;;;;33.83;28.52;;;15.00;99.90;;;;;;4902096;28;90219;-29
2023/04/23 08:19:50;;;;;;;33.33;28.02;;;15.20;99.90;;;;;;4902154;28;89332;-30
2023/04/23 08:22:16;;;;;;;33.75;28.80;;;15.50;99.90;;;;;;4901847;28;90865;-31
2023/04/23 08:24:43;;;;;;;35.97;29.00;;;15.30;99.90;;;;;;4901550;28;90194;-30
2023/04/23 08:27:09;;;;;;;34.00;28.20;;;15.40;99.90;;;;;;4901191;28;88719;-33
2023/04/23 08:29:35;;;;;;;38.67;29.10;;;15.40;99.90;;;;;;4901811;28;90296;-32
2023/04/23 08:32:01;;;;;;;38.97;29.58;;;15.50;99.90;;;;;;4902570;28;89852;-31
2023/04/23 08:34:26;;;;;;;36.92;28.05;;;15.80;99.90;;;;;;4909695;28;88363;-31
2023/04/23 08:36:52;;;;;;;42.10;31.33;;;15.90;99.90;;;;;;4903332;28;89327;-33
2023/04/23 08:39:17;;;;;;;37.75;30.20;;;15.80;99.90;;;;;;4908065;28;90161;-34
2023/04/23 08:41:47;;;;;;;38.08;28.42;;;15.70;99.90;;;;;;4903724;28;89911;-34
2023/04/23 08:44:24;;;;;;;32.20;25.52;;;15.50;99.90;;;;;;4899008;28;90305;-31
2023/04/23 08:46:52;;;;;;;34.15;26.73;;;15.70;99.90;;;;;;4896403;28;88266;-31
2023/04/23 08:49:19;;;;;;;35.78;29.00;;;15.90;99.90;;;;;;4902082;28;90057;-33
2023/04/23 08:51:51;;;;;;;38.58;30.33;;;16.30;99.90;;;;;;4898917;28;89586;-35
2023/04/23 08:54:27;;;;;;;35.80;29.52;;;16.30;99.90;;;;;;4901474;28;89401;-32
2023/04/23 08:56:57;;;;;;;34.92;30.23;;;16.50;99.90;;;;;;4904064;28;88429;-32
2023/04/23 08:59:24;;;;;;;36.30;27.95;;;16.50;99.90;;;;;;4903472;28;89759;-29
2023/04/23 09:01:50;;;;;;;36.95;29.30;;;16.50;99.90;;;;;;4900954;28;90273;-32
2023/04/23 09:04:16;;;;;;;30.02;26.63;;;16.90;99.90;;;;;;4900708;28;89472;-33
2023/04/23 09:06:42;;;;;;;35.40;26.40;;;17.20;99.90;;;;;;4904855;28;89832;-32
2023/04/23 09:09:08;;;;;;;30.50;25.35;;;17.30;99.90;;;;;;4902535;28;89728;-31
2023/04/23 09:11:36;;;;;;;31.90;26.58;;;17.00;99.90;;;;;;4901700;28;89808;-32
2023/04/23 09:14:03;;;;;;;38.28;25.27;;;17.10;99.90;;;;;;4918132;28;89422;-33
2023/04/23 09:16:29;;;;;;;30.65;24.20;;;17.30;99.90;;;;;;4918362;28;87888;-34
2023/04/23 09:18:56;;;;;;;26.00;22.83;;;17.20;99.90;;;;;;4899206;28;90298;-32
2023/04/23 09:21:21;;;;;;;24.33;21.02;;;17.30;99.90;;;;;;4899322;28;89762;-31
2023/04/23 09:23:51;;;;;;;27.42;22.60;;;17.20;99.90;;;;;;4899228;28;89833;-34
2023/04/23 09:26:21;;;;;;;28.58;21.92;;;17.50;99.90;;;;;;4898611;28;89325;-32
2023/04/23 09:28:49;;;;;;;25.27;20.80;;;17.30;99.90;;;;;;4900110;28;90304;-31
2023/04/23 09:31:20;;;;;;;26.13;21.20;;;17.40;99.90;;;;;;4910201;28;90710;-34
2023/04/23 09:33:53;;;;;;;27.98;21.20;;;17.70;99.90;;;;;;4916622;28;90644;-30
2023/04/23 09:36:22;;;;;;;21.23;18.92;;;17.90;99.90;;;;;;4913902;28;89312;-33
2023/04/23 09:38:49;;;;;;;22.13;18.40;;;18.00;99.90;;;;;;4915509;28;90193;-29
2023/04/23 09:41:21;;;;;;;20.92;16.85;;;17.90;99.90;;;;;;4909585;28;89761;-31
2023/04/23 09:43:47;;;;;;;19.52;16.75;;;18.20;99.90;;;;;;4910142;28;89161;-32
2023/04/23 09:46:13;;;;;;;20.15;15.10;;;18.10;99.90;;;;;;4907895;28;89978;-32
2023/04/23 09:48:42;;;;;;;16.80;14.15;;;18.20;99.90;;;;;;4906103;28;90417;-34
2023/04/23 09:51:08;;;;;;;17.55;13.30;;;18.40;99.90;;;;;;4905101;28;90196;-32
2023/04/23 09:53:42;;;;;;;17.73;13.18;;;18.30;99.90;;;;;;4906293;28;90450;-31
2023/04/23 09:56:09;;;;;;;15.93;13.77;;;18.20;99.90;;;;;;4904299;28;88527;-29
2023/04/23 09:58:36;;;;;;;17.50;13.05;;;18.20;99.90;;;;;;4904900;28;89236;-32
2023/04/23 10:01:08;;;;;;;19.85;12.40;;;18.40;99.90;;;;;;4904300;28;90355;-30
2023/04/23 10:03:34;;;;;;;16.45;12.25;;;17.90;99.90;;;;;;4908719;28;89960;-32
2023/04/23 10:06:00;;;;;;;13.02;10.25;;;18.10;99.90;;;;;;4903641;28;89493;-33
2023/04/23 10:08:26;;;;;;;11.95;10.10;;;18.20;99.90;;;;;;4903264;28;90700;-32
2023/04/23 10:10:52;;;;;;;15.18;10.15;;;18.40;99.90;;;;;;4903536;28;89666;-30
2023/04/23 10:13:18;;;;;;;13.73;9.23;;;18.30;99.90;;;;;;4897229;28;89965;-30
2023/04/23 10:15:46;;;;;;;10.18;8.98;;;18.50;99.90;;;;;;4916514;28;90198;-34
2023/04/23 10:18:15;;;;;;;16.83;8.18;;;18.20;99.90;;;;;;4917220;28;90464;-32
2023/04/23 10:20:41;;;;;;;10.75;7.70;;;18.20;99.90;;;;;;4886626;28;89048;-33
2023/04/23 10:23:10;;;;;;;10.57;8.43;;;18.40;99.90;;;;;;4910779;28;89392;-34
2023/04/23 10:25:38;;;;;;;12.85;10.05;;;18.10;99.90;;;;;;4898628;28;88014;-30
2023/04/23 10:28:06;;;;;;;;;;;18.20;99.90;;;;;;4898965;28;90326;-29
2023/04/23 10:30:32;;;;;;;8.90;8.02;;;17.60;99.90;;;;;;4911037;28;89729;-31
2023/04/23 10:33:00;;;;;;;11.40;8.90;;;17.60;99.90;;;;;;4912132;28;91547;-32
2023/04/23 10:35:25;;;;;;;10.00;8.05;;;17.20;99.90;;;;;;4916745;28;88866;-30
2023/04/23 10:37:52;;;;;;;15.95;8.02;;;17.50;99.90;;;;;;4916952;28;88510;-33
2023/04/23 10:40:23;;;;;;;10.90;9.13;;;17.60;99.90;;;;;;4916244;28;90889;-29
2023/04/23 10:42:50;;;;;;;13.27;9.45;;;17.70;99.90;;;;;;4916925;28;90358;-32
2023/04/23 10:45:17;;;;;;;7.57;6.88;;;17.80;99.90;;;;;;4903037;28;90018;-31
2023/04/23 10:47:44;;;;;;;10.17;7.17;;;18.30;99.90;;;;;;4914119;28;90776;-32
2023/04/23 10:50:21;;;;;;;6.18;5.57;;;18.20;99.90;;;;;;4920339;28;90220;-29
2023/04/23 10:52:50;;;;;;;9.90;6.88;;;18.50;99.90;;;;;;4918225;28;89646;-31
2023/04/23 10:55:21;;;;;;;11.63;6.50;;;18.30;99.90;;;;;;4920189;28;88978;-33
2023/04/23 10:58:04;;;;;;;6.78;6.10;;;18.10;99.90;;;;;;4919435;28;90518;-33
2023/04/23 11:00:45;;;;;;;7.47;6.38;;;18.40;99.90;;;;;;4918074;28;90089;-31
2023/04/23 11:03:30;;;;;;;11.00;6.15;;;18.60;99.90;;;;;;4918549;28;89465;-32
2023/04/23 11:05:57;;;;;;;7.72;5.35;;;18.60;99.90;;;;;;4917541;28;89156;-31
2023/04/23 11:08:22;;;;;;;12.80;4.63;;;18.80;99.90;;;;;;4918939;28;90053;-31
2023/04/23 11:10:55;;;;;;;8.15;4.70;;;18.60;99.90;;;;;;4912279;28;89572;-30
2023/04/23 11:13:23;;;;;;;7.47;4.85;;;18.60;99.90;;;;;;4901435;28;89072;-32
2023/04/23 11:16:22;;;;;;;7.13;4.70;;;18.30;92.90;;;;;;4908125;28;88086;-31
2023/04/23 11:18:54;;;;;;;5.80;4.07;;;18.10;92.40;;;;;;4902290;28;89223;-31
2023/04/23 11:21:20;;;;;;;7.88;4.05;;;18.30;99.90;;;;;;4901562;28;89901;-33
2023/04/23 11:23:45;;;;;;;6.30;3.88;;;18.60;99.90;;;;;;4901409;28;88961;-33
2023/04/23 11:26:16;;;;;;;7.00;3.75;;;18.70;99.90;;;;;;4900700;28;89227;-31
2023/04/23 11:28:42;;;;;;;7.82;3.95;;;18.30;92.40;;;;;;4905750;28;90425;-35
2023/04/23 11:31:09;;;;;;;9.45;4.55;;;18.10;97.50;;;;;;4919072;28;91090;-34
2023/04/23 11:33:37;;;;;;;3.90;3.38;;;18.10;99.90;;;;;;4913597;28;90010;-33
2023/04/23 11:36:03;;;;;;;5.30;2.72;;;18.30;99.90;;;;;;4900931;28;89978;-32
2023/04/23 11:38:34;;;;;;;3.88;2.03;;;18.50;83.70;;;;;;4919616;28;90582;-32
2023/04/23 11:41:04;;;;;;;5.50;3.63;;;18.40;80.80;;;;;;4918765;28;89746;-33
2023/04/23 11:43:29;;;;;;;3.42;2.65;;;18.30;90.10;;;;;;4919593;28;89436;-31
2023/04/23 11:45:56;;;;;;;6.85;3.42;;;18.50;79.80;;;;;;4919584;28;87863;-31
2023/04/23 11:48:22;;;;;;;9.05;3.40;;;18.40;82.80;;;;;;4911823;28;89128;-32
2023/04/23 11:50:48;;;;;;;3.45;2.83;;;18.20;86.20;;;;;;4902234;28;90074;-34
2023/04/23 11:53:15;;;;;;;4.15;2.88;;;18.20;84.80;;;;;;4911320;28;90253;-33
2023/04/23 11:55:42;;;;;;;6.05;3.40;;;18.20;93.00;;;;;;4901133;28;88926;-32
2023/04/23 11:58:09;;;;;;;10.57;3.30;;;18.40;94.60;;;;;;4918426;28;90072;-31
2023/04/23 12:00:34;;;;;;;6.15;3.45;;;18.20;93.30;;;;;;4919204;28;89828;-32
2023/04/23 12:03:05;;;;;;;9.07;2.80;;;18.20;91.00;;;;;;4919003;28;90092;-32
2023/04/23 12:05:38;;;;;;;3.67;3.00;;;18.50;88.40;;;;;;4918521;28;89630;-34
2023/04/23 12:08:19;;;;;;;5.53;2.92;;;18.60;86.70;;;;;;4910193;28;90368;-32
2023/04/23 12:10:51;;;;;;;5.55;2.85;;;18.40;77.90;;;;;;4900107;28;90838;-35
2023/04/23 12:13:20;;;;;;;9.10;3.15;;;18.70;86.50;;;;;;4912388;28;89369;-31
2023/04/23 12:15:50;;;;;;;5.85;3.10;;;18.80;81.60;;;;;;4899935;28;89096;-33
2023/04/23 12:18:17;;;;;;;2.90;2.30;;;18.90;82.60;;;;;;4912310;28;90656;-32
2023/04/23 12:20:43;;;;;;;5.20;3.00;;;18.80;81.50;;;;;;4906610;28;90422;-31
2023/04/23 12:23:09;;;;;;;5.88;3.13;;;19.10;79.60;;;;;;4918405;28;89657;-31
2023/04/23 12:25:35;;;;;;;3.97;2.63;;;19.00;77.40;;;;;;4912348;28;88307;-30
2023/04/23 12:28:05;;;;;;;4.00;3.10;;;18.90;75.80;;;;;;4899972;28;90533;-33
2023/04/23 12:30:33;;;;;;;3.88;2.58;;;18.80;75.70;;;;;;4900535;28;90235;-33
2023/04/23 12:32:59;;;;;;;7.90;3.05;;;18.60;74.70;;;;;;4900830;28;89719;-33